Parma, Arkansas
Current Conditions -  °F | °C
As of 12:55 AM on Saturday 01 Nov 2014 (Local Time) from KBVX Reporting Station
Clear Clear  
Wind Chill: 37°   Ceiling: Unl
Heat Index: 37°   Visibility: 10mi
Dew Point: 19°   Wind: 3mph
Humidity: 48%   Direction: 320°NW
Pressure: 30.39"   Gusts: NA
Location:  35.659°N, 92.1866°W
Report Text: KBVX 010555Z AUTO 32003KT 10SM CLR 03/M07 A3039 RMK AO1 10080 20030 52003
Loading
Personal Weather Stations






























Interactive Weather Map
Tropical Storm Tracking
New forecast layout! Learn more

10-Day Weather Forecast

Advertisements
Track Severe Weather on mobile